Time;durP1;ratioP1;P1;durP2;ratioP2;P2;SDS_P1;SDS_P2;PMS_P1;PMS_P2;Temp;Humidity;BMP_temperature;BMP_pressure;BME280_temperature;BME280_humidity;BME280_pressure;Samples;Min_cycle;Max_cycle;Signal;HPM_P1;HPM_P2
2021/12/27 00:00:22;;;;;;;62.83;51.00;;;17.00;59.60;;;;;;4953827;28;89331;-70
2021/12/27 00:02:51;;;;;;;63.42;51.05;;;17.00;59.80;;;;;;4949566;28;89496;-70
2021/12/27 00:05:16;;;;;;;63.50;50.75;;;17.00;59.80;;;;;;4942700;28;89976;-70
2021/12/27 00:07:44;;;;;;;65.00;51.50;;;17.00;59.90;;;;;;4949496;28;91301;-70
2021/12/27 00:10:10;;;;;;;64.03;51.20;;;17.00;60.00;;;;;;4951772;28;91350;-71
2021/12/27 00:12:36;;;;;;;64.40;51.70;;;17.00;60.00;;;;;;4952193;28;89408;-71
2021/12/27 00:15:03;;;;;;;63.58;51.58;;;17.00;60.00;;;;;;4942368;28;90417;-70
2021/12/27 00:17:28;;;;;;;65.00;51.88;;;17.00;60.10;;;;;;4946735;28;91163;-70
2021/12/27 00:19:56;;;;;;;64.63;52.38;;;17.00;60.00;;;;;;4948286;28;91548;-70
2021/12/27 00:22:22;;;;;;;63.42;51.35;;;17.00;60.10;;;;;;4957864;28;90229;-70
2021/12/27 00:24:47;;;;;;;64.10;51.58;;;17.00;60.10;;;;;;4956455;28;89196;-70
2021/12/27 00:27:17;;;;;;;64.80;52.33;;;16.90;60.30;;;;;;4945026;28;90250;-70
2021/12/27 00:29:44;;;;;;;65.35;51.92;;;16.90;60.10;;;;;;4951785;28;90288;-70
2021/12/27 00:32:09;;;;;;;64.32;52.03;;;16.90;60.30;;;;;;4939497;28;91246;-71
2021/12/27 00:34:38;;;;;;;64.90;51.42;;;16.90;60.30;;;;;;4943426;28;89601;-71
2021/12/27 00:37:08;;;;;;;64.60;51.65;;;16.90;60.40;;;;;;4949709;28;90643;-71
2021/12/27 00:39:34;;;;;;;65.90;52.63;;;16.90;60.30;;;;;;4946643;28;92108;-70
2021/12/27 00:42:00;;;;;;;65.63;51.85;;;16.90;60.40;;;;;;4947711;28;89883;-70
2021/12/27 00:44:26;;;;;;;65.22;51.97;;;16.90;60.40;;;;;;4961694;28;89958;-70
2021/12/27 00:46:52;;;;;;;65.60;52.17;;;16.90;60.50;;;;;;4950273;28;93330;-70
2021/12/27 00:49:18;;;;;;;63.53;51.50;;;16.80;60.30;;;;;;4946942;28;89886;-71
2021/12/27 00:51:44;;;;;;;64.57;51.45;;;16.80;60.40;;;;;;4945415;28;91848;-71
2021/12/27 00:54:21;;;;;;;62.95;51.45;;;16.80;60.40;;;;;;2311155;28;10109270;-71
2021/12/27 00:56:47;;;;;;;63.78;51.85;;;16.80;61.30;;;;;;3236894;28;10093464;-71
2021/12/27 00:59:12;;;;;;;63.90;51.92;;;16.80;60.50;;;;;;4968296;28;90233;-71
2021/12/27 01:01:38;;;;;;;65.65;52.58;;;16.80;60.60;;;;;;4957665;28;90545;-71
2021/12/27 01:04:05;;;;;;;64.47;52.17;;;16.80;60.90;;;;;;4955668;28;89837;-70
2021/12/27 01:06:32;;;;;;;63.08;51.30;;;16.80;60.70;;;;;;4953231;28;91874;-70
2021/12/27 01:08:58;;;;;;;65.57;52.88;;;16.80;60.80;;;;;;4963277;28;96121;-71
2021/12/27 01:14:02;;;;;;;62.85;51.22;;;16.80;60.60;;;;;;4961408;28;88776;-70
2021/12/27 01:16:29;;;;;;;63.58;51.55;;;16.80;60.80;;;;;;4965092;28;92839;-71
2021/12/27 01:18:55;;;;;;;64.80;51.53;;;16.80;60.80;;;;;;4982439;28;91748;-71
2021/12/27 01:21:22;;;;;;;64.57;51.33;;;16.80;60.60;;;;;;4962056;28;91054;-70
2021/12/27 01:23:51;;;;;;;64.95;52.20;;;16.80;60.70;;;;;;4965791;28;90039;-70
2021/12/27 01:26:17;;;;;;;63.10;51.38;;;16.80;60.80;;;;;;4964095;28;90036;-71
2021/12/27 01:28:43;;;;;;;64.15;51.38;;;16.70;60.80;;;;;;4961034;28;89903;-71
2021/12/27 01:31:10;;;;;;;64.97;52.33;;;16.70;60.90;;;;;;4961563;28;92619;-70
2021/12/27 01:33:37;;;;;;;64.20;51.60;;;16.70;60.80;;;;;;4964139;28;90368;-71
2021/12/27 01:36:04;;;;;;;63.60;51.70;;;16.80;61.60;;;;;;4965353;28;90105;-71
2021/12/27 01:38:30;;;;;;;63.95;52.28;;;16.80;60.80;;;;;;4970139;28;92323;-71
2021/12/27 01:40:57;;;;;;;64.40;51.72;;;16.80;60.80;;;;;;4963474;28;90220;-70
2021/12/27 01:43:31;;;;;;;63.08;51.40;;;16.70;60.80;;;;;;4966733;28;89819;-71
2021/12/27 01:46:04;;;;;;;64.88;51.85;;;16.70;60.70;;;;;;4961809;28;90525;-71
2021/12/27 01:48:36;;;;;;;65.05;51.83;;;16.70;60.90;;;;;;4958807;28;91179;-71
2021/12/27 01:51:05;;;;;;;66.15;51.95;;;16.70;60.80;;;;;;4967972;28;89899;-71
2021/12/27 01:53:32;;;;;;;63.78;51.42;;;16.80;61.10;;;;;;4964135;28;95465;-70
2021/12/27 01:55:59;;;;;;;62.95;51.33;;;16.70;60.90;;;;;;4960116;28;92444;-71
2021/12/27 01:58:26;;;;;;;63.83;51.50;;;16.70;60.80;;;;;;4964307;28;91979;-71
2021/12/27 02:00:55;;;;;;;63.70;51.53;;;16.70;60.80;;;;;;4965691;28;89669;-71
2021/12/27 02:03:23;;;;;;;63.85;51.40;;;16.70;60.80;;;;;;4970314;28;88801;-70
2021/12/27 02:05:49;;;;;;;65.45;51.78;;;16.70;60.90;;;;;;4965903;28;89946;-71
2021/12/27 02:08:15;;;;;;;62.83;51.13;;;16.70;60.90;;;;;;4969902;28;90201;-71
2021/12/27 02:10:41;;;;;;;63.63;51.33;;;16.70;61.00;;;;;;4960712;28;90595;-71
2021/12/27 02:13:08;;;;;;;63.60;51.80;;;16.70;61.00;;;;;;4967805;28;90396;-71
2021/12/27 02:15:33;;;;;;;63.85;51.08;;;16.70;61.10;;;;;;4963091;28;90803;-70
2021/12/27 02:17:59;;;;;;;64.82;51.63;;;16.70;61.20;;;;;;4965318;28;90500;-71
2021/12/27 02:20:28;;;;;;;64.13;51.00;;;16.60;61.00;;;;;;4957542;28;91031;-71
2021/12/27 02:22:59;;;;;;;63.13;50.80;;;16.70;60.90;;;;;;4969589;28;91843;-70
2021/12/27 02:25:25;;;;;;;63.38;50.70;;;16.60;61.00;;;;;;4967232;28;89954;-70
2021/12/27 02:27:52;;;;;;;65.60;51.58;;;16.70;61.10;;;;;;4967833;28;89821;-70
2021/12/27 02:30:18;;;;;;;63.15;50.75;;;16.80;60.60;;;;;;4966636;28;90580;-71
2021/12/27 02:32:51;;;;;;;62.97;50.78;;;16.90;60.60;;;;;;4964863;28;91047;-70
2021/12/27 02:35:25;;;;;;;63.58;50.83;;;16.90;60.30;;;;;;4969680;28;91102;-70
2021/12/27 02:37:53;;;;;;;63.40;51.10;;;17.00;60.50;;;;;;4971461;28;90552;-71
2021/12/27 02:40:23;;;;;;;63.60;51.42;;;17.10;60.00;;;;;;4981369;28;89775;-70
2021/12/27 02:43:17;;;;;;;63.47;51.05;;;17.20;59.80;;;;;;4967897;28;98843;-71
2021/12/27 02:45:46;;;;;;;62.83;50.95;;;17.40;59.50;;;;;;4966827;28;90856;-70
2021/12/27 02:48:13;;;;;;;63.38;50.83;;;17.40;59.30;;;;;;4973519;28;89949;-70
2021/12/27 02:50:41;;;;;;;64.78;52.35;;;17.50;59.30;;;;;;4956371;28;91321;-70
2021/12/27 02:53:08;;;;;;;65.45;52.67;;;17.50;59.10;;;;;;4966434;28;91396;-71
2021/12/27 02:55:35;;;;;;;65.30;52.35;;;17.60;59.00;;;;;;4983180;28;92811;-71
2021/12/27 02:58:01;;;;;;;66.55;53.08;;;17.60;59.00;;;;;;4972021;28;90480;-71
2021/12/27 03:00:33;;;;;;;64.88;51.83;;;17.60;59.00;;;;;;4962688;28;94133;-71
2021/12/27 03:02:59;;;;;;;63.97;52.03;;;17.60;59.00;;;;;;4968664;28;90814;-70
2021/12/27 03:05:27;;;;;;;67.05;53.13;;;17.70;58.90;;;;;;4963630;28;91151;-71
2021/12/27 03:07:55;;;;;;;65.60;52.53;;;17.70;58.60;;;;;;4971513;28;90181;-71
2021/12/27 03:10:27;;;;;;;63.05;51.00;;;17.70;58.60;;;;;;4971952;28;89892;-71
2021/12/27 03:12:54;;;;;;;65.15;52.88;;;17.80;58.50;;;;;;4973373;28;90090;-71
2021/12/27 03:15:22;;;;;;;63.35;50.95;;;17.80;58.40;;;;;;4968520;28;89643;-70
2021/12/27 03:17:49;;;;;;;65.35;51.50;;;17.80;58.50;;;;;;4967664;28;88725;-71
2021/12/27 03:20:17;;;;;;;64.25;51.80;;;17.80;58.50;;;;;;4974106;28;90897;-70
2021/12/27 03:22:43;;;;;;;63.30;51.28;;;17.80;58.30;;;;;;4966706;28;94264;-70
2021/12/27 03:25:12;;;;;;;64.38;51.25;;;17.80;58.20;;;;;;4963118;28;91329;-70
2021/12/27 03:27:38;;;;;;;63.70;51.05;;;17.80;58.30;;;;;;4963898;28;90771;-70
2021/12/27 03:30:11;;;;;;;64.35;51.65;;;17.80;58.90;;;;;;4964072;28;89794;-70
2021/12/27 03:32:37;;;;;;;63.05;50.67;;;17.90;58.20;;;;;;4966100;28;90085;-71
2021/12/27 03:35:12;;;;;;;62.97;50.63;;;17.90;58.10;;;;;;4967994;28;92536;-71
2021/12/27 03:37:44;;;;;;;63.70;51.20;;;17.90;58.20;;;;;;4967421;28;89616;-70
2021/12/27 03:40:11;;;;;;;;;;;17.80;58.20;;;;;;4964943;28;90039;-70
2021/12/27 03:42:37;;;;;;;64.20;51.22;;;17.80;58.20;;;;;;4973218;28;92354;-70
2021/12/27 03:45:04;;;;;;;63.40;51.00;;;17.80;58.30;;;;;;4960829;28;98792;-70
2021/12/27 03:47:29;;;;;;;64.40;51.72;;;17.70;58.40;;;;;;4961427;28;89969;-70
2021/12/27 03:49:55;;;;;;;64.07;51.33;;;17.70;58.40;;;;;;4966493;28;91289;-71
2021/12/27 03:52:20;;;;;;;63.58;51.15;;;17.70;58.50;;;;;;4982420;28;98810;-71
2021/12/27 03:54:46;;;;;;;65.93;51.72;;;17.70;58.50;;;;;;4966433;28;90091;-71
2021/12/27 03:57:15;;;;;;;65.90;52.17;;;17.60;58.70;;;;;;4970949;28;91102;-71
2021/12/27 04:02:14;;;;;;;65.35;52.10;;;17.50;58.90;;;;;;4963276;28;91965;-70
2021/12/27 04:04:41;;;;;;;65.70;51.72;;;17.50;59.20;;;;;;4962991;28;90062;-71
2021/12/27 04:07:08;;;;;;;62.92;51.20;;;17.40;59.20;;;;;;4971368;28;90803;-71
2021/12/27 04:09:35;;;;;;;63.00;51.25;;;17.40;59.10;;;;;;4964112;28;90827;-71
2021/12/27 04:12:01;;;;;;;64.63;51.47;;;17.30;59.30;;;;;;4963607;28;90562;-71
2021/12/27 04:14:27;;;;;;;63.75;51.45;;;17.40;59.30;;;;;;4961239;28;91075;-70
2021/12/27 04:16:53;;;;;;;62.90;50.78;;;17.40;59.30;;;;;;4956171;28;91893;-71
2021/12/27 04:19:19;;;;;;;64.13;51.75;;;17.30;59.30;;;;;;4964163;28;90670;-71
2021/12/27 04:21:45;;;;;;;63.13;51.25;;;17.30;59.40;;;;;;4964870;28;90182;-70
2021/12/27 04:24:11;;;;;;;64.03;51.35;;;17.30;59.40;;;;;;4962346;28;91200;-70
2021/12/27 04:26:37;;;;;;;63.85;50.75;;;17.30;59.50;;;;;;4961282;28;89561;-71
2021/12/27 04:29:03;;;;;;;64.40;51.58;;;17.20;59.60;;;;;;4965587;28;90301;-71
2021/12/27 04:31:29;;;;;;;63.15;50.92;;;17.20;59.50;;;;;;4968168;28;89516;-71
2021/12/27 04:33:54;;;;;;;62.03;50.45;;;17.20;59.60;;;;;;4968250;28;90838;-71
2021/12/27 04:36:20;;;;;;;62.22;50.25;;;17.10;59.70;;;;;;4972167;28;90575;-71
2021/12/27 04:38:46;;;;;;;63.35;51.08;;;17.10;59.70;;;;;;4967323;28;92116;-71
2021/12/27 04:41:16;;;;;;;62.33;50.67;;;17.10;59.80;;;;;;4961530;28;89896;-72
2021/12/27 04:43:42;;;;;;;62.77;50.30;;;17.10;59.80;;;;;;4961648;28;89996;-71
2021/12/27 04:46:08;;;;;;;63.33;50.90;;;17.10;59.80;;;;;;4958522;28;89650;-70
2021/12/27 04:48:33;;;;;;;62.05;50.35;;;17.10;59.80;;;;;;4963708;28;92511;-70
2021/12/27 04:50:59;;;;;;;62.60;50.60;;;17.00;60.00;;;;;;4966512;28;90135;-71
2021/12/27 04:53:25;;;;;;;62.50;50.00;;;17.10;59.90;;;;;;4973562;28;90048;-71
2021/12/27 04:55:51;;;;;;;64.10;51.20;;;17.10;59.90;;;;;;4961743;28;90173;-71
2021/12/27 04:58:21;;;;;;;63.90;50.38;;;17.10;59.70;;;;;;4965589;28;90446;-71
2021/12/27 05:00:47;;;;;;;63.28;50.42;;;17.00;59.80;;;;;;4971168;28;89933;-70
2021/12/27 05:03:13;;;;;;;63.08;50.47;;;17.00;59.90;;;;;;4963067;28;91976;-70
2021/12/27 05:05:43;;;;;;;62.08;50.15;;;17.00;59.90;;;;;;4959521;28;94025;-70
2021/12/27 05:08:09;;;;;;;62.28;50.30;;;17.00;60.00;;;;;;4969971;28;89746;-71
2021/12/27 05:10:36;;;;;;;62.45;50.63;;;17.00;60.00;;;;;;4965093;28;89908;-70
2021/12/27 05:13:02;;;;;;;62.08;49.92;;;17.00;60.00;;;;;;4963905;28;92418;-70
2021/12/27 05:15:28;;;;;;;61.85;49.95;;;16.90;60.00;;;;;;4967081;28;91013;-70
2021/12/27 05:17:53;;;;;;;61.90;50.38;;;16.90;60.10;;;;;;4958292;28;91640;-71
2021/12/27 05:20:19;;;;;;;61.65;49.97;;;17.00;59.80;;;;;;4965986;28;90150;-70
2021/12/27 05:22:45;;;;;;;61.40;49.83;;;16.90;59.80;;;;;;4961569;28;90981;-70
2021/12/27 05:25:12;;;;;;;62.58;49.55;;;17.00;59.90;;;;;;4967218;28;89889;-71
2021/12/27 05:27:39;;;;;;;62.28;50.15;;;17.10;60.00;;;;;;4976335;28;91344;-71
2021/12/27 05:30:05;;;;;;;61.72;49.65;;;17.20;59.90;;;;;;4966576;28;90695;-71
2021/12/27 05:32:31;;;;;;;63.38;50.13;;;17.40;59.60;;;;;;4961995;28;90551;-70
2021/12/27 05:34:56;;;;;;;62.30;49.95;;;17.50;59.40;;;;;;4965339;27;90868;-70
2021/12/27 05:37:22;;;;;;;62.10;49.78;;;17.70;59.20;;;;;;4967442;28;90196;-70
2021/12/27 05:39:48;;;;;;;63.67;49.85;;;17.80;59.00;;;;;;4968105;28;95192;-70
2021/12/27 05:42:14;;;;;;;62.63;50.10;;;17.90;58.80;;;;;;4966330;28;90050;-71
2021/12/27 05:44:40;;;;;;;62.60;49.95;;;18.00;58.40;;;;;;4965084;28;90501;-70
2021/12/27 05:47:06;;;;;;;62.53;50.05;;;18.10;58.00;;;;;;4963038;28;95228;-71
2021/12/27 05:49:31;;;;;;;62.72;50.13;;;18.20;57.90;;;;;;4971673;28;94836;-71
2021/12/27 05:51:57;;;;;;;62.97;50.22;;;18.30;57.80;;;;;;4967428;28;90900;-71
2021/12/27 05:54:23;;;;;;;62.70;50.03;;;18.40;57.70;;;;;;4966477;28;89606;-70
2021/12/27 05:56:49;;;;;;;63.03;50.42;;;18.50;57.40;;;;;;4969759;28;89614;-71
2021/12/27 05:59:18;;;;;;;62.72;50.00;;;18.60;57.40;;;;;;4964123;28;89830;-71
2021/12/27 06:01:44;;;;;;;63.25;50.35;;;18.60;57.10;;;;;;4965854;28;97452;-71
2021/12/27 06:04:10;;;;;;;61.95;49.80;;;18.60;56.90;;;;;;4963867;28;90279;-71
2021/12/27 06:06:36;;;;;;;62.03;49.80;;;18.70;56.80;;;;;;4972512;28;89442;-71
2021/12/27 06:09:04;;;;;;;62.67;49.83;;;18.70;56.80;;;;;;4972551;28;89087;-70
2021/12/27 06:11:30;;;;;;;63.30;49.92;;;18.70;56.70;;;;;;4972078;28;90162;-70
2021/12/27 06:13:56;;;;;;;66.82;50.67;;;18.70;56.60;;;;;;4960668;28;91892;-70
2021/12/27 06:16:21;;;;;;;64.65;50.00;;;18.80;56.60;;;;;;4963370;28;91354;-70
2021/12/27 06:18:48;;;;;;;63.40;49.75;;;18.80;56.50;;;;;;4974711;28;94002;-71
2021/12/27 06:21:14;;;;;;;64.15;50.08;;;18.80;56.50;;;;;;4971222;28;92562;-71
2021/12/27 06:23:39;;;;;;;63.20;50.15;;;18.70;56.50;;;;;;4970854;28;90077;-70
2021/12/27 06:26:05;;;;;;;61.72;49.78;;;18.80;56.50;;;;;;4963605;28;90016;-70
2021/12/27 06:28:31;;;;;;;61.55;49.28;;;18.70;56.50;;;;;;4953855;28;91572;-71
2021/12/27 06:30:58;;;;;;;61.85;49.60;;;18.70;56.60;;;;;;4964151;28;91094;-71
2021/12/27 06:33:24;;;;;;;63.88;49.92;;;18.70;56.70;;;;;;4967328;28;89685;-71
2021/12/27 06:35:49;;;;;;;62.50;49.58;;;18.70;56.60;;;;;;4967192;28;92465;-71
2021/12/27 06:38:15;;;;;;;62.55;49.47;;;18.60;56.80;;;;;;4967430;28;90565;-71
2021/12/27 06:40:41;;;;;;;63.47;50.13;;;18.60;56.80;;;;;;4969857;28;93008;-71
2021/12/27 06:43:07;;;;;;;64.88;49.95;;;18.70;56.60;;;;;;4971218;28;90572;-71
2021/12/27 06:45:32;;;;;;;63.03;49.72;;;18.70;56.60;;;;;;4959376;28;91070;-71
2021/12/27 06:47:58;;;;;;;64.82;50.50;;;18.60;56.60;;;;;;4963344;28;90820;-71
2021/12/27 06:50:23;;;;;;;63.67;49.50;;;18.60;56.70;;;;;;4972476;28;89684;-71
2021/12/27 06:52:49;;;;;;;65.63;49.97;;;18.50;56.80;;;;;;4969885;28;89899;-70
2021/12/27 06:55:15;;;;;;;63.05;49.85;;;18.50;56.90;;;;;;4966219;28;90612;-71
2021/12/27 06:57:41;;;;;;;63.63;50.28;;;18.50;57.00;;;;;;4959877;28;91164;-71
2021/12/27 07:00:11;;;;;;;62.92;49.50;;;18.50;56.90;;;;;;4964035;28;93920;-71
2021/12/27 07:02:36;;;;;;;62.35;49.85;;;18.40;57.10;;;;;;4968878;28;94577;-71
2021/12/27 07:05:03;;;;;;;63.45;49.72;;;18.40;57.00;;;;;;4953594;28;90978;-71
2021/12/27 07:07:28;;;;;;;65.07;49.85;;;18.40;57.00;;;;;;4961564;28;90456;-70
2021/12/27 07:09:54;;;;;;;65.75;49.47;;;18.30;57.10;;;;;;4965297;28;90029;-71
2021/12/27 07:12:20;;;;;;;63.25;49.75;;;18.40;57.10;;;;;;4956298;28;91265;-70
2021/12/27 07:14:48;;;;;;;66.80;50.30;;;18.30;57.10;;;;;;4952859;28;90279;-70
2021/12/27 07:17:14;;;;;;;62.45;49.42;;;18.30;57.20;;;;;;4957655;28;90863;-70
2021/12/27 07:19:40;;;;;;;63.92;49.90;;;18.30;57.20;;;;;;4948563;28;92934;-70
2021/12/27 07:22:06;;;;;;;64.40;49.67;;;18.20;57.40;;;;;;4961009;28;92520;-70
2021/12/27 07:24:31;;;;;;;66.45;49.72;;;18.30;57.40;;;;;;4965094;28;91704;-70
2021/12/27 07:26:57;;;;;;;62.58;49.78;;;18.20;57.50;;;;;;4963657;28;89949;-70
2021/12/27 07:29:23;;;;;;;62.70;49.63;;;18.20;57.60;;;;;;4957064;28;91533;-70
2021/12/27 07:31:49;;;;;;;64.82;49.92;;;18.20;57.70;;;;;;4958147;28;91240;-70
2021/12/27 07:34:17;;;;;;;64.60;49.83;;;18.10;57.70;;;;;;4953695;28;93337;-70
2021/12/27 07:36:43;;;;;;;62.85;49.47;;;18.10;57.80;;;;;;4958636;28;90531;-70
2021/12/27 07:39:09;;;;;;;65.32;50.08;;;18.10;57.80;;;;;;4939329;28;92144;-71
2021/12/27 07:41:35;;;;;;;64.95;49.95;;;18.10;57.90;;;;;;4978134;28;92696;-70
2021/12/27 07:44:00;;;;;;;63.70;49.83;;;18.10;57.80;;;;;;4963151;28;91985;-70
2021/12/27 07:46:26;;;;;;;65.28;50.72;;;18.10;58.30;;;;;;4961760;28;91069;-70
2021/12/27 07:48:52;;;;;;;66.10;49.75;;;18.10;58.60;;;;;;4962173;28;90601;-70
2021/12/27 07:51:17;;;;;;;66.97;50.35;;;18.20;58.60;;;;;;4963101;28;89965;-70
2021/12/27 07:53:43;;;;;;;65.32;50.55;;;18.20;58.50;;;;;;4958836;28;91980;-71
2021/12/27 07:56:09;;;;;;;64.80;50.28;;;18.30;58.60;;;;;;4967110;28;89945;-70
2021/12/27 07:58:35;;;;;;;63.65;50.55;;;18.30;58.70;;;;;;4967717;28;89596;-70
2021/12/27 08:01:02;;;;;;;70.05;50.50;;;18.40;58.60;;;;;;4962807;28;90548;-70
2021/12/27 08:03:28;;;;;;;65.75;50.67;;;18.40;58.50;;;;;;4963617;28;90304;-71
2021/12/27 08:05:54;;;;;;;67.57;50.50;;;18.40;58.30;;;;;;4981338;28;90017;-70
2021/12/27 08:08:20;;;;;;;66.35;50.53;;;18.50;58.30;;;;;;4971363;28;90584;-70
2021/12/27 08:10:46;;;;;;;67.00;50.60;;;18.50;58.30;;;;;;4968653;28;91927;-71
2021/12/27 08:13:12;;;;;;;68.07;50.75;;;18.70;58.00;;;;;;4969221;28;89912;-71
2021/12/27 08:15:38;;;;;;;67.55;50.90;;;18.70;57.70;;;;;;4965124;28;90055;-70
2021/12/27 08:18:04;;;;;;;65.63;50.05;;;18.80;57.60;;;;;;4957852;28;94630;-70
2021/12/27 08:20:30;;;;;;;67.80;50.65;;;18.80;57.50;;;;;;4978858;28;91471;-70
2021/12/27 08:22:56;;;;;;;67.38;50.67;;;18.90;57.50;;;;;;4972726;28;89678;-70
2021/12/27 08:25:22;;;;;;;65.55;50.75;;;19.00;57.30;;;;;;4974420;28;90767;-70
2021/12/27 08:27:48;;;;;;;70.78;51.92;;;18.90;57.20;;;;;;4961289;28;90210;-70
2021/12/27 08:30:14;;;;;;;67.50;50.85;;;19.00;57.20;;;;;;4957742;28;90492;-70
2021/12/27 08:32:42;;;;;;;70.50;50.85;;;19.00;57.00;;;;;;4971544;28;91977;-70
2021/12/27 08:35:09;;;;;;;64.65;50.80;;;18.90;57.20;;;;;;4967256;28;94731;-70
2021/12/27 08:37:36;;;;;;;66.88;50.22;;;18.80;57.40;;;;;;4966162;28;90406;-70
2021/12/27 08:40:03;;;;;;;67.20;50.58;;;18.70;57.40;;;;;;4964809;28;90277;-70
2021/12/27 08:42:28;;;;;;;66.50;50.78;;;18.70;57.50;;;;;;4968216;28;90600;-70
2021/12/27 08:44:54;;;;;;;68.43;50.78;;;18.70;57.50;;;;;;4966330;28;89465;-70
2021/12/27 08:47:20;;;;;;;68.38;50.70;;;18.60;57.60;;;;;;4972473;28;89965;-70
2021/12/27 08:49:45;;;;;;;67.50;50.72;;;18.60;57.50;;;;;;4971421;28;90128;-70
2021/12/27 08:52:11;;;;;;;68.00;50.80;;;18.70;57.60;;;;;;4958034;28;90443;-70
2021/12/27 08:54:38;;;;;;;69.25;51.13;;;18.70;57.30;;;;;;4960021;28;90889;-71
2021/12/27 08:57:04;;;;;;;69.68;50.90;;;18.60;57.40;;;;;;4967368;28;90573;-71
2021/12/27 08:59:30;;;;;;;68.65;50.83;;;18.60;57.50;;;;;;4954348;28;90245;-70
2021/12/27 09:01:56;;;;;;;67.78;50.63;;;18.60;57.40;;;;;;4963519;28;89822;-70
2021/12/27 09:04:23;;;;;;;67.25;50.45;;;18.60;57.30;;;;;;4964962;28;89808;-70
2021/12/27 09:06:48;;;;;;;68.50;50.45;;;18.60;57.40;;;;;;4967590;28;90852;-70
2021/12/27 09:09:15;;;;;;;66.03;50.85;;;18.50;57.50;;;;;;4967873;28;90373;-71
2021/12/27 09:11:42;;;;;;;69.72;51.00;;;18.50;57.70;;;;;;4945665;28;90673;-73
2021/12/27 09:14:07;;;;;;;70.40;51.55;;;18.50;58.00;;;;;;4958693;28;90305;-74
2021/12/27 09:16:33;;;;;;;66.25;50.83;;;18.50;58.30;;;;;;4957015;28;90821;-74
2021/12/27 09:18:59;;;;;;;70.18;51.00;;;18.60;58.50;;;;;;4966936;28;90659;-74
2021/12/27 09:21:24;;;;;;;68.03;50.78;;;18.60;58.70;;;;;;4969803;28;89987;-74
2021/12/27 09:23:51;;;;;;;72.35;51.67;;;18.70;58.90;;;;;;4964370;28;89340;-74
2021/12/27 09:26:17;;;;;;;69.93;51.35;;;18.70;58.90;;;;;;4966787;28;91462;-74
2021/12/27 09:28:42;;;;;;;68.65;51.10;;;18.80;59.00;;;;;;4969713;28;89646;-75
2021/12/27 09:31:08;;;;;;;70.47;51.25;;;18.80;58.70;;;;;;4954430;28;91091;-77
2021/12/27 09:33:34;;;;;;;72.15;50.97;;;18.90;58.30;;;;;;4974651;28;91363;-74
2021/12/27 09:35:59;;;;;;;68.82;51.28;;;19.00;58.00;;;;;;4959476;28;92219;-74
2021/12/27 09:38:28;;;;;;;67.88;51.17;;;19.10;57.70;;;;;;4965656;28;91091;-73
2021/12/27 09:40:54;;;;;;;67.00;50.90;;;19.20;57.60;;;;;;4965679;28;92925;-75
2021/12/27 09:43:19;;;;;;;69.63;51.70;;;19.20;57.30;;;;;;4962705;28;91343;-74
2021/12/27 09:45:45;;;;;;;69.65;51.10;;;19.30;57.10;;;;;;4950563;28;91357;-75
2021/12/27 09:48:13;;;;;;;70.97;51.33;;;19.30;56.90;;;;;;4967119;28;91022;-74
2021/12/27 09:50:50;;;;;;;72.32;51.22;;;19.30;56.80;;;;;;4961672;28;90415;-74
2021/12/27 09:53:16;;;;;;;70.82;51.72;;;19.40;56.70;;;;;;4983163;28;90796;-74
2021/12/27 09:55:42;;;;;;;66.40;50.95;;;19.40;56.60;;;;;;4969256;28;91689;-75
2021/12/27 09:58:08;;;;;;;69.13;51.17;;;19.40;56.40;;;;;;4958371;28;90938;-75
2021/12/27 10:00:34;;;;;;;69.50;51.33;;;19.40;56.40;;;;;;4956748;28;90676;-75
2021/12/27 10:03:00;;;;;;;67.15;51.10;;;19.50;56.30;;;;;;4956476;28;96471;-75
2021/12/27 10:05:28;;;;;;;68.03;51.00;;;19.50;56.20;;;;;;4967550;28;91217;-74
2021/12/27 10:07:55;;;;;;;67.32;50.90;;;19.50;56.20;;;;;;4964963;28;90418;-76
2021/12/27 10:10:20;;;;;;;69.68;51.45;;;19.50;56.20;;;;;;4965715;28;90151;-76
2021/12/27 10:12:47;;;;;;;74.72;51.33;;;19.50;56.30;;;;;;4962714;28;89345;-78
2021/12/27 10:15:17;;;;;;;70.45;51.22;;;19.50;56.30;;;;;;4948879;28;90876;-76
2021/12/27 10:17:44;;;;;;;71.25;51.17;;;19.60;56.60;;;;;;4965660;28;94307;-77
2021/12/27 10:20:19;;;;;;;68.22;51.53;;;19.60;56.50;;;;;;4967433;28;90815;-77
2021/12/27 10:22:50;;;;;;;69.38;51.38;;;19.50;56.80;;;;;;4963563;28;90741;-76
2021/12/27 10:25:24;;;;;;;71.38;51.40;;;19.60;56.80;;;;;;4972340;28;89955;-77
2021/12/27 10:27:54;;;;;;;67.90;51.00;;;19.60;56.70;;;;;;4961042;28;91469;-74
2021/12/27 10:30:50;;;;;;;72.22;51.35;;;19.60;56.80;;;;;;4969994;28;90351;-76
2021/12/27 10:33:24;;;;;;;73.05;51.33;;;19.70;57.00;;;;;;4959452;28;90268;-76
2021/12/27 10:35:56;;;;;;;70.93;51.28;;;19.70;57.00;;;;;;4981958;28;91342;-76
2021/12/27 10:38:26;;;;;;;70.70;51.10;;;19.70;56.90;;;;;;4964090;28;90620;-76
2021/12/27 10:41:09;;;;;;;67.77;50.77;;;19.70;56.80;;;;;;4966423;28;90788;-75
2021/12/27 10:43:43;;;;;;;73.43;51.28;;;19.60;56.80;;;;;;4971914;28;90173;-76
2021/12/27 10:46:12;;;;;;;69.22;50.97;;;19.60;57.40;;;;;;4965204;28;95359;-75
2021/12/27 10:48:47;;;;;;;70.97;51.08;;;19.60;56.70;;;;;;4957507;28;90167;-75
2021/12/27 10:51:14;;;;;;;69.07;51.40;;;19.60;56.60;;;;;;4965081;28;91254;-75
2021/12/27 10:53:51;;;;;;;70.53;50.72;;;19.50;56.60;;;;;;4969233;28;91019;-75
2021/12/27 10:56:20;;;;;;;68.63;51.05;;;19.50;56.40;;;;;;4965092;28;91074;-75
2021/12/27 10:58:51;;;;;;;72.05;51.05;;;19.50;56.30;;;;;;4964685;28;92462;-75
2021/12/27 11:01:19;;;;;;;68.53;51.08;;;19.60;56.30;;;;;;4963053;28;91775;-76
2021/12/27 11:03:48;;;;;;;69.20;51.17;;;19.60;56.30;;;;;;4966712;28;89230;-74
2021/12/27 11:06:19;;;;;;;70.18;50.83;;;19.60;56.30;;;;;;4966056;28;91020;-75
2021/12/27 11:08:45;;;;;;;74.35;51.42;;;19.50;57.00;;;;;;4940483;28;1186604;-76
2021/12/27 11:11:15;;;;;;;72.15;51.35;;;19.50;57.40;;;;;;4966110;28;90715;-73
2021/12/27 11:13:43;;;;;;;69.30;51.15;;;19.60;57.40;;;;;;4963063;28;90677;-73
2021/12/27 11:16:09;;;;;;;74.60;51.15;;;19.50;57.60;;;;;;4983941;28;92126;-73
2021/12/27 11:18:34;;;;;;;71.40;51.13;;;19.50;58.00;;;;;;4965018;28;91010;-73
2021/12/27 11:21:04;;;;;;;72.43;51.05;;;19.50;58.20;;;;;;4962842;28;90496;-72
2021/12/27 11:23:32;;;;;;;72.63;50.92;;;19.50;58.30;;;;;;4965715;28;89930;-74
2021/12/27 11:26:04;;;;;;;72.28;50.42;;;19.50;58.50;;;;;;4979989;28;91457;-75
2021/12/27 11:28:43;;;;;;;69.85;50.63;;;19.50;58.50;;;;;;4969875;28;92476;-75
2021/12/27 11:31:25;;;;;;;72.43;51.10;;;19.50;58.20;;;;;;4969159;28;89509;-75
2021/12/27 11:34:03;;;;;;;68.53;50.75;;;19.50;58.00;;;;;;4964608;28;90486;-74
2021/12/27 11:36:38;;;;;;;68.28;50.80;;;19.50;57.90;;;;;;4967554;28;93380;-73
2021/12/27 11:39:21;;;;;;;68.95;50.95;;;19.50;57.70;;;;;;4952953;28;91147;-75
2021/12/27 11:42:09;;;;;;;68.18;50.22;;;19.50;57.50;;;;;;4965665;28;91025;-74
2021/12/27 11:44:45;;;;;;;69.93;50.78;;;19.50;57.50;;;;;;4958328;28;91488;-75
2021/12/27 11:47:12;;;;;;;67.85;50.30;;;19.50;57.40;;;;;;4954178;28;91635;-74
2021/12/27 11:49:58;;;;;;;68.22;50.75;;;19.50;57.40;;;;;;4962003;28;90391;-75
2021/12/27 11:52:35;;;;;;;66.65;50.60;;;19.60;57.10;;;;;;4965896;28;89859;-74
2021/12/27 11:55:14;;;;;;;70.32;50.55;;;19.70;56.90;;;;;;4963992;28;89765;-76
2021/12/27 11:57:43;;;;;;;67.22;50.05;;;19.80;56.70;;;;;;4965278;28;89798;-75
2021/12/27 12:00:18;;;;;;;65.28;50.38;;;19.80;56.40;;;;;;4963433;28;90092;-74
2021/12/27 12:02:45;;;;;;;65.97;50.10;;;19.90;56.20;;;;;;4962874;28;90950;-75
2021/12/27 12:05:39;;;;;;;68.00;50.47;;;20.00;56.00;;;;;;4963379;28;97378;-75
2021/12/27 12:08:06;;;;;;;66.65;50.58;;;20.10;55.80;;;;;;4965694;28;96447;-76
2021/12/27 12:10:32;;;;;;;69.47;50.20;;;20.10;55.50;;;;;;4959636;28;91688;-75
2021/12/27 12:13:21;;;;;;;67.18;50.40;;;20.10;55.50;;;;;;4963638;28;90183;-74
2021/12/27 12:15:59;;;;;;;66.47;49.95;;;20.20;55.20;;;;;;4965674;28;90324;-76
2021/12/27 12:18:25;;;;;;;65.53;50.13;;;20.20;55.00;;;;;;4964645;28;91078;-75
2021/12/27 12:20:51;;;;;;;65.68;50.33;;;20.20;54.90;;;;;;4970269;28;90303;-75
2021/12/27 12:23:20;;;;;;;66.55;50.33;;;20.20;54.70;;;;;;4976575;28;90691;-76
2021/12/27 12:25:45;;;;;;;65.97;50.38;;;20.30;54.70;;;;;;4973635;28;89492;-75
2021/12/27 12:28:17;;;;;;;66.53;50.28;;;20.30;54.60;;;;;;4971419;28;91011;-75
2021/12/27 12:30:49;;;;;;;;;;;20.30;54.40;;;;;;4969312;28;90120;-75
2021/12/27 12:33:18;;;;;;;;;;;20.30;54.40;;;;;;4968105;28;90450;-76
2021/12/27 12:35:48;;;;;;;66.03;49.85;;;20.20;54.40;;;;;;4969035;28;89999;-76